createdAt,value
2018-08-03T00:02:27.768Z,23.5
2018-08-03T00:07:28.621Z,23.5
2018-08-03T00:12:28.015Z,23.4
2018-08-03T00:17:27.233Z,23.3
2018-08-03T00:22:27.860Z,23.3
2018-08-03T00:27:27.760Z,23.2
2018-08-03T00:32:27.926Z,23.1
2018-08-03T00:37:27.623Z,23.1
2018-08-03T00:42:26.603Z,23.1
2018-08-03T00:47:27.415Z,23.1
2018-08-03T00:52:27.667Z,23.0
2018-08-03T00:57:27.106Z,22.9
2018-08-03T01:02:28.290Z,22.9
2018-08-03T01:07:27.601Z,22.8
2018-08-03T01:12:27.767Z,22.8
2018-08-03T01:17:27.197Z,22.7
2018-08-03T01:22:27.099Z,22.7
2018-08-03T01:27:27.149Z,22.7
2018-08-03T01:32:27.633Z,22.7
2018-08-03T01:37:27.213Z,22.6
2018-08-03T01:42:27.691Z,22.6
2018-08-03T01:47:28.309Z,22.5
2018-08-03T01:52:27.189Z,22.4
2018-08-03T01:57:27.138Z,22.5
2018-08-03T02:02:27.465Z,22.4
2018-08-03T02:07:27.890Z,22.3
2018-08-03T02:12:27.445Z,22.2
2018-08-03T02:17:27.639Z,22.2
2018-08-03T02:22:27.138Z,22.2
2018-08-03T02:27:27.230Z,22.1
2018-08-03T02:32:27.439Z,22.1
2018-08-03T02:37:27.174Z,22.0
2018-08-03T02:42:26.818Z,22.0
2018-08-03T02:47:27.923Z,22.0
2018-08-03T02:52:27.478Z,21.9
2018-08-03T02:57:27.884Z,21.8
2018-08-03T03:02:27.294Z,21.8
2018-08-03T03:07:27.528Z,21.8
2018-08-03T03:12:27.487Z,21.8
2018-08-03T03:17:28.934Z,21.8
2018-08-03T03:22:27.179Z,21.7
2018-08-03T03:27:28.268Z,21.6
2018-08-03T03:32:27.567Z,21.6
2018-08-03T03:37:28.214Z,21.6
2018-08-03T03:42:29.123Z,21.6
2018-08-03T03:47:27.040Z,21.5
2018-08-03T03:52:27.945Z,21.5
2018-08-03T03:57:28.191Z,21.5
2018-08-03T04:02:27.772Z,21.5
2018-08-03T04:07:28.224Z,21.4
2018-08-03T04:12:27.662Z,21.4
2018-08-03T04:17:28.119Z,21.4
2018-08-03T04:22:27.258Z,21.4
2018-08-03T04:27:27.712Z,21.4
2018-08-03T04:32:27.696Z,21.4
2018-08-03T04:37:28.569Z,21.5
2018-08-03T04:42:28.117Z,21.6
2018-08-03T04:47:27.918Z,21.7
2018-08-03T04:52:27.416Z,21.9
2018-08-03T04:57:27.011Z,22.0
2018-08-03T05:02:27.989Z,22.1
2018-08-03T05:07:28.183Z,22.4
2018-08-03T05:12:27.548Z,22.4
2018-08-03T05:17:28.246Z,22.6
2018-08-03T05:22:27.098Z,22.8
2018-08-03T05:27:29.173Z,23.0
2018-08-03T05:32:28.275Z,23.5
2018-08-03T05:37:27.992Z,23.5
2018-08-03T05:42:27.825Z,23.7
2018-08-03T05:47:27.971Z,24.1
2018-08-03T05:52:27.111Z,24.0
2018-08-03T05:57:27.894Z,24.3
2018-08-03T06:02:27.671Z,24.7
2018-08-03T06:07:28.372Z,24.7
2018-08-03T06:12:27.047Z,24.9
2018-08-03T06:17:28.109Z,25.2
2018-08-03T06:22:28.066Z,25.4
2018-08-03T06:27:27.251Z,25.7
2018-08-03T06:32:28.118Z,26.0
2018-08-03T06:37:27.937Z,26.2
2018-08-03T06:42:27.640Z,26.6
2018-08-03T06:47:27.412Z,26.6
2018-08-03T06:52:27.927Z,26.9
2018-08-03T06:57:27.439Z,27.2
2018-08-03T07:02:27.683Z,27.5
2018-08-03T07:07:27.466Z,27.8
2018-08-03T07:12:28.570Z,28.1
2018-08-03T07:17:28.240Z,28.5
2018-08-03T07:22:28.328Z,28.7
2018-08-03T07:27:27.765Z,29.0
2018-08-03T07:32:28.324Z,29.3
2018-08-03T07:37:28.041Z,29.5
2018-08-03T07:42:28.292Z,29.8
2018-08-03T07:47:28.007Z,30.1
2018-08-03T07:52:27.258Z,30.4
2018-08-03T07:57:27.612Z,30.8
2018-08-03T08:02:28.755Z,30.9
2018-08-03T08:07:28.699Z,31.2
2018-08-03T08:12:27.302Z,31.4
2018-08-03T08:17:27.997Z,31.7
2018-08-03T08:22:27.711Z,32.0
2018-08-03T08:27:27.818Z,32.3
2018-08-03T08:32:27.173Z,32.7
2018-08-03T08:37:27.403Z,32.9
2018-08-03T08:42:27.845Z,33.2
2018-08-03T08:47:27.808Z,33.5
2018-08-03T08:52:27.464Z,33.9
2018-08-03T08:57:28.332Z,34.1
2018-08-03T09:02:28.089Z,34.2
2018-08-03T09:07:28.042Z,34.2
2018-08-03T09:12:27.995Z,34.3
2018-08-03T09:17:28.342Z,34.4
2018-08-03T09:22:27.634Z,34.6
2018-08-03T09:27:28.005Z,34.6
2018-08-03T09:32:28.335Z,34.8
2018-08-03T09:37:28.398Z,35.0
2018-08-03T09:42:27.820Z,35.3
2018-08-03T09:47:27.624Z,35.6
2018-08-03T09:52:26.996Z,35.9
2018-08-03T09:57:28.169Z,36.0
2018-08-03T10:02:28.391Z,36.2
2018-08-03T10:07:27.441Z,36.1
2018-08-03T10:12:28.094Z,36.4
2018-08-03T10:17:29.041Z,36.5
2018-08-03T10:22:27.232Z,37.0
2018-08-03T10:27:27.337Z,37.0
2018-08-03T10:32:28.407Z,37.4
2018-08-03T10:37:27.807Z,37.3
2018-08-03T10:42:27.711Z,37.4
2018-08-03T10:47:28.326Z,37.5
2018-08-03T10:52:28.972Z,37.8
2018-08-03T10:57:27.929Z,38.2
2018-08-03T11:02:28.980Z,38.3
2018-08-03T11:07:28.906Z,38.3
2018-08-03T11:12:27.628Z,38.5
2018-08-03T11:17:28.434Z,38.4
2018-08-03T11:22:28.156Z,38.7
2018-08-03T11:27:27.823Z,39.3
2018-08-03T11:32:27.728Z,39.3
2018-08-03T11:37:27.737Z,39.3
2018-08-03T11:42:28.218Z,39.2
2018-08-03T11:47:27.610Z,39.5
2018-08-03T11:52:27.749Z,39.7
2018-08-03T11:57:27.496Z,39.9
2018-08-03T12:02:27.792Z,39.8
2018-08-03T12:07:27.925Z,39.8
2018-08-03T12:12:28.527Z,40.4
2018-08-03T12:17:28.643Z,40.4
2018-08-03T12:22:26.971Z,40.6
2018-08-03T12:27:27.357Z,40.8
2018-08-03T12:32:27.595Z,41.2
2018-08-03T12:37:28.138Z,41.6
2018-08-03T12:42:27.475Z,42.0
2018-08-03T12:47:27.389Z,42.3
2018-08-03T12:52:28.480Z,42.0
2018-08-03T12:57:27.497Z,41.4
2018-08-03T13:02:27.725Z,41.4
2018-08-03T13:07:28.597Z,42.0
2018-08-03T13:12:29.419Z,41.5
2018-08-03T13:17:28.317Z,40.8
2018-08-03T13:22:27.288Z,40.7
2018-08-03T13:27:28.214Z,41.3
2018-08-03T13:32:28.050Z,41.9
2018-08-03T13:37:28.089Z,42.3
2018-08-03T13:42:28.066Z,42.7
2018-08-03T13:47:27.951Z,43.3
2018-08-03T13:52:27.155Z,43.7
2018-08-03T13:57:28.328Z,43.2
2018-08-03T14:02:27.884Z,41.9
2018-08-03T14:07:40.114Z,42.3
2018-08-03T14:12:26.369Z,42.3
2018-08-03T14:17:27.104Z,42.1
2018-08-03T14:22:27.294Z,43.0
2018-08-03T14:27:27.378Z,43.0
2018-08-03T14:32:27.325Z,43.6
2018-08-03T14:37:27.482Z,43.6
2018-08-03T14:42:26.222Z,45.9
2018-08-03T14:47:26.886Z,45.9
2018-08-03T14:52:26.883Z,47.3
2018-08-03T14:57:27.047Z,50.2
2018-08-03T15:02:27.831Z,51.7
2018-08-03T15:07:27.117Z,51.7
2018-08-03T15:12:26.823Z,53.4
2018-08-03T15:17:28.059Z,54.8
2018-08-03T15:22:27.307Z,56.2
2018-08-03T15:27:28.089Z,56.2
2018-08-03T15:32:27.063Z,50.1
2018-08-03T15:37:27.793Z,46.2
2018-08-03T15:42:27.696Z,48.6
2018-08-03T15:47:28.018Z,52.5
2018-08-03T15:52:27.444Z,54.8
2018-08-03T15:57:27.863Z,56.0
2018-08-03T16:02:27.283Z,56.9
2018-08-03T16:07:28.345Z,57.9
2018-08-03T16:12:27.770Z,55.0
2018-08-03T16:17:29.508Z,54.9
2018-08-03T16:22:27.139Z,55.2
2018-08-03T16:27:27.157Z,55.6
2018-08-03T16:32:28.123Z,51.8
2018-08-03T16:37:27.693Z,51.5
2018-08-03T16:42:27.887Z,54.5
2018-08-03T16:47:27.365Z,56.1
2018-08-03T16:52:27.758Z,54.3
2018-08-03T16:57:27.491Z,54.3
2018-08-03T17:02:28.514Z,52.6
2018-08-03T17:07:27.589Z,49.3
2018-08-03T17:12:27.469Z,51.7
2018-08-03T17:17:27.991Z,53.3
2018-08-03T17:22:27.234Z,53.9
2018-08-03T17:27:28.377Z,54.3
2018-08-03T17:32:27.108Z,52.9
2018-08-03T17:37:27.534Z,52.9
2018-08-03T17:42:26.992Z,51.1
2018-08-03T17:47:27.507Z,50.4
2018-08-03T17:52:27.415Z,49.0
2018-08-03T17:57:28.006Z,49.0
2018-08-03T18:02:27.198Z,48.4
2018-08-03T18:07:29.065Z,46.0
2018-08-03T18:12:27.600Z,42.6
2018-08-03T18:17:27.371Z,40.5
2018-08-03T18:22:27.699Z,39.0
2018-08-03T18:27:28.034Z,37.1
2018-08-03T18:32:27.613Z,37.0
2018-08-03T18:37:27.496Z,35.8
2018-08-03T18:42:27.585Z,35.7
2018-08-03T18:47:27.437Z,35.2
2018-08-03T18:52:27.911Z,33.9
2018-08-03T18:57:27.106Z,33.4
2018-08-03T19:02:27.818Z,33.4
2018-08-03T19:07:28.181Z,32.6
2018-08-03T19:12:28.346Z,32.2
2018-08-03T19:17:27.884Z,32.2
2018-08-03T19:22:27.527Z,32.1
2018-08-03T19:27:27.646Z,31.8
2018-08-03T19:32:28.389Z,31.5
2018-08-03T19:37:27.324Z,31.2
2018-08-03T19:42:27.328Z,31.2
2018-08-03T19:47:27.305Z,30.9
2018-08-03T19:52:27.401Z,30.8
2018-08-03T19:57:28.370Z,30.6
2018-08-03T20:02:26.744Z,30.3
2018-08-03T20:07:28.075Z,29.8
2018-08-03T20:12:27.222Z,29.8
2018-08-03T20:17:27.714Z,29.7
2018-08-03T20:22:27.296Z,29.5
2018-08-03T20:27:27.498Z,29.3
2018-08-03T20:32:27.306Z,29.2
2018-08-03T20:37:27.623Z,29.1
2018-08-03T20:42:26.735Z,28.9
2018-08-03T20:47:26.816Z,28.7
2018-08-03T20:52:27.287Z,28.6
2018-08-03T20:57:27.403Z,28.5
2018-08-03T21:02:27.557Z,28.4
2018-08-03T21:07:27.273Z,28.2
2018-08-03T21:12:27.671Z,28.1
2018-08-03T21:17:27.893Z,28.0
2018-08-03T21:22:27.085Z,27.8
2018-08-03T21:27:27.251Z,27.6
2018-08-03T21:32:27.174Z,27.5
2018-08-03T21:37:27.888Z,27.4
2018-08-03T21:42:27.582Z,27.4
2018-08-03T21:47:27.907Z,27.2
2018-08-03T21:52:27.336Z,27.1
2018-08-03T21:57:27.447Z,26.9
2018-08-03T22:02:27.551Z,26.8
2018-08-03T22:07:28.924Z,26.7
2018-08-03T22:12:27.268Z,26.7
2018-08-03T22:23:04.334Z,26.3
2018-08-03T22:28:03.858Z,26.3
2018-08-03T22:33:03.611Z,26.2
2018-08-03T22:38:04.118Z,26.1
2018-08-03T22:43:03.847Z,26.0
2018-08-03T22:48:03.753Z,25.9
2018-08-03T22:53:04.067Z,25.8
2018-08-03T22:58:04.525Z,25.7
2018-08-03T23:03:03.480Z,25.6
2018-08-03T23:08:03.951Z,25.5
2018-08-03T23:12:27.394Z,25.4
2018-08-03T23:17:28.230Z,25.4
2018-08-03T23:22:28.325Z,25.3
2018-08-03T23:27:28.135Z,25.2
2018-08-03T23:32:27.550Z,25.0
2018-08-03T23:37:27.512Z,24.9
2018-08-03T23:42:27.345Z,24.7
2018-08-03T23:47:27.934Z,24.7
2018-08-03T23:52:27.633Z,24.6
2018-08-03T23:57:27.646Z,24.5
